Time;durP1;ratioP1;P1;durP2;ratioP2;P2;SDS_P1;SDS_P2;PMS_P1;PMS_P2;Temp;Humidity;BMP_temperature;BMP_pressure;BME280_temperature;BME280_humidity;BME280_pressure;Samples;Min_cycle;Max_cycle;Signal;HPM_P1;HPM_P2
2022/05/13 00:01:30;;;;;;;0.30;0.30;;;12.30;99.90;11.90;101700.00;;;;5034678;28;20183;-69
2022/05/13 00:03:59;;;;;;;0.30;0.30;;;12.30;99.90;11.90;101715.00;;;;5034260;28;20194;-69
2022/05/13 00:06:25;;;;;;;0.70;0.70;;;12.40;99.90;12.10;101696.00;;;;5035061;28;20246;-69
2022/05/13 00:08:51;;;;;;;0.30;0.30;;;12.50;99.90;12.10;101692.00;;;;5035410;28;20183;-70
2022/05/13 00:11:17;;;;;;;0.30;0.30;;;12.50;99.90;12.60;101708.00;;;;5034067;28;20203;-70
2022/05/13 00:13:43;;;;;;;0.30;0.30;;;12.70;99.90;12.10;101698.00;;;;5035509;28;20187;-70
2022/05/13 00:16:09;;;;;;;0.33;0.33;;;12.70;99.90;12.30;101706.00;;;;5035298;28;20186;-70
2022/05/13 00:18:35;;;;;;;0.40;0.40;;;12.60;99.90;11.70;101699.00;;;;5035499;28;20178;-70
2022/05/13 00:21:01;;;;;;;0.40;0.40;;;12.40;99.90;11.80;101703.00;;;;5049839;28;20187;-69
2022/05/13 00:23:27;;;;;;;1.50;1.40;;;12.30;99.90;12.10;101678.00;;;;5051001;28;20225;-70
2022/05/13 00:25:57;;;;;;;0.63;0.40;;;12.30;99.90;11.50;101701.00;;;;5050341;28;20535;-69
2022/05/13 00:28:23;;;;;;;0.30;0.30;;;12.10;99.90;11.30;101702.00;;;;5034964;28;20179;-70
2022/05/13 00:30:49;;;;;;;0.30;0.30;;;12.00;99.90;11.50;101699.00;;;;5034066;28;20181;-70
2022/05/13 00:33:16;;;;;;;0.30;0.30;;;12.10;99.90;11.20;101706.00;;;;5050315;28;20597;-70
2022/05/13 00:35:45;;;;;;;0.30;0.30;;;11.90;99.90;11.70;101714.00;;;;5050647;28;20630;-70
2022/05/13 00:38:11;;;;;;;0.30;0.30;;;12.10;99.90;11.30;101697.00;;;;5034248;28;20167;-70
2022/05/13 00:40:38;;;;;;;0.50;0.50;;;12.00;99.90;11.60;101677.00;;;;5050005;28;20587;-69
2022/05/13 00:43:07;;;;;;;0.20;0.20;;;12.10;99.90;12.10;101714.00;;;;5050185;28;20596;-70
2022/05/13 00:45:34;;;;;;;0.97;0.97;;;12.30;99.90;11.50;101687.00;;;;5050333;28;20181;-70
2022/05/13 00:48:07;;;;;;;0.30;0.30;;;12.20;99.90;11.40;101717.00;;;;5048582;28;20205;-70
2022/05/13 00:50:40;;;;;;;0.30;0.30;;;12.00;99.90;11.40;101715.00;;;;5048576;28;20181;-70
2022/05/13 00:53:06;;;;;;;0.93;0.83;;;12.10;99.90;12.10;101725.00;;;;5048372;28;20237;-70
2022/05/13 00:55:42;;;;;;;0.53;0.53;;;12.30;99.90;11.40;101715.00;;;;5048874;28;20183;-70
2022/05/13 00:58:17;;;;;;;0.90;0.90;;;12.20;99.90;11.00;101726.00;;;;5048978;28;20179;-69
2022/05/13 01:00:43;;;;;;;2.93;1.27;;;11.90;99.90;11.10;101719.00;;;;5050280;28;20178;-70
2022/05/13 01:03:11;;;;;;;1.37;1.10;;;11.80;99.90;11.70;101726.00;;;;5050361;28;20187;-70
2022/05/13 01:05:43;;;;;;;0.30;0.30;;;12.00;99.90;11.20;101731.00;;;;5050469;28;20187;-70
2022/05/13 01:08:11;;;;;;;0.90;0.90;;;11.90;99.90;11.60;101732.00;;;;5049789;28;20702;-70
2022/05/13 01:10:39;;;;;;;4.13;1.67;;;12.00;99.90;11.40;101718.00;;;;5049873;28;20199;-70
2022/05/13 01:13:11;;;;;;;9.13;1.40;;;12.00;99.90;11.20;101736.00;;;;5033398;28;20202;-70
2022/05/13 01:15:40;;;;;;;0.30;0.30;;;11.90;99.90;11.20;101729.00;;;;5048339;28;20201;-69
2022/05/13 01:18:07;;;;;;;0.63;0.63;;;11.80;99.90;11.30;101727.00;;;;5049804;28;20265;-70
2022/05/13 01:20:46;;;;;;;0.30;0.30;;;12.00;99.90;11.70;101690.00;;;;5032602;28;20681;-70
2022/05/13 01:23:24;;;;;;;0.37;0.37;;;12.00;99.90;11.80;101732.00;;;;5049167;28;20190;-70
2022/05/13 01:25:57;;;;;;;0.40;0.40;;;12.10;99.90;11.90;101726.00;;;;5033237;28;20266;-69
2022/05/13 01:28:37;;;;;;;0.40;0.40;;;12.30;99.90;11.00;101736.00;;;;5032945;28;20183;-69
2022/05/13 01:31:08;;;;;;;0.30;0.30;;;11.90;99.90;11.00;101736.00;;;;5032952;28;20206;-69
2022/05/13 01:33:38;;;;;;;0.30;0.30;;;11.80;99.90;11.40;101739.00;;;;5047989;28;20183;-70
2022/05/13 01:36:06;;;;;;;1.07;1.07;;;12.00;99.90;12.20;101699.00;;;;5049201;28;20191;-69
2022/05/13 01:38:37;;;;;;;0.53;0.53;;;12.30;99.90;12.10;101747.00;;;;5048643;28;20221;-67
2022/05/13 01:41:06;;;;;;;4.17;1.20;;;12.50;99.90;11.50;101735.00;;;;5034286;28;20619;-69
2022/05/13 01:43:39;;;;;;;0.80;0.73;;;12.20;99.90;11.10;101745.00;;;;5049080;28;20262;-68
2022/05/13 01:46:05;;;;;;;0.40;0.40;;;11.90;99.90;10.90;101740.00;;;;5048624;28;20163;-69
2022/05/13 01:48:31;;;;;;;3.53;3.23;;;11.70;99.90;11.00;101742.00;;;;5033245;28;20249;-68
2022/05/13 01:50:58;;;;;;;7.07;0.70;;;11.70;99.90;11.40;101754.00;;;;5032245;28;20237;-69
2022/05/13 01:53:27;;;;;;;0.97;0.97;;;11.80;99.90;11.40;101746.00;;;;5048713;28;20717;-69
2022/05/13 01:55:52;;;;;;;2.87;2.73;;;11.80;99.90;11.40;101745.00;;;;5032452;28;20209;-69
2022/05/13 01:58:22;;;;;;;3.37;0.80;;;12.00;99.90;11.30;101742.00;;;;5033149;28;20690;-69
2022/05/13 02:00:52;;;;;;;1.83;1.73;;;11.90;99.90;11.00;101749.00;;;;5048376;28;20652;-69
2022/05/13 02:06:03;;;;;;;0.40;0.40;;;11.80;99.90;11.80;101735.00;;;;5046329;28;20673;-70
2022/05/13 02:08:32;;;;;;;0.30;0.30;;;12.00;99.90;11.40;101725.00;;;;5048547;28;20182;-70
2022/05/13 02:11:02;;;;;;;1.80;1.30;;;12.00;99.90;11.70;101734.00;;;;5048812;28;20228;-70
2022/05/13 02:13:28;;;;;;;0.30;0.30;;;12.10;99.90;11.50;101732.00;;;;5048216;28;20179;-70
2022/05/13 02:15:55;;;;;;;0.30;0.30;;;12.10;99.90;11.40;101722.00;;;;5047340;28;20175;-71
2022/05/13 02:18:24;;;;;;;0.30;0.30;;;12.00;99.90;11.60;101723.00;;;;5031572;28;20179;-71
2022/05/13 02:20:50;;;;;;;0.30;0.30;;;12.00;99.90;11.50;101696.00;;;;5033495;28;20201;-71
2022/05/13 02:23:20;;;;;;;0.30;0.30;;;11.80;99.90;11.80;101682.00;;;;5048469;28;20222;-71
2022/05/13 02:25:46;;;;;;;0.47;0.47;;;12.00;99.90;12.00;101724.00;;;;5048524;28;20182;-71
2022/05/13 02:28:18;;;;;;;0.40;0.40;;;12.20;99.90;11.90;101728.00;;;;5033424;28;20186;-70
2022/05/13 02:30:44;;;;;;;0.40;0.40;;;12.20;99.90;11.30;101733.00;;;;5047089;28;20265;-71
2022/05/13 02:33:13;;;;;;;0.30;0.30;;;12.00;99.90;11.70;101739.00;;;;5048948;28;20532;-70
2022/05/13 02:35:38;;;;;;;0.30;0.30;;;12.10;99.90;11.20;101730.00;;;;5033115;28;20634;-70
2022/05/13 02:38:04;;;;;;;0.83;0.70;;;11.80;99.90;11.20;101748.00;;;;5032154;28;20187;-70
2022/05/13 02:41:16;;;;;;;0.80;0.80;;;11.70;99.90;10.90;101725.00;;;;5047374;28;20709;-70
2022/05/13 02:43:16;;;;;;;0.30;0.30;;;11.50;99.90;11.00;101737.00;;;;5032148;28;20190;-70
2022/05/13 02:45:42;;;;;;;0.30;0.30;;;11.60;99.90;11.30;101705.00;;;;5033253;28;20651;-70
2022/05/13 02:48:08;;;;;;;0.40;0.40;;;11.60;99.90;11.70;101738.00;;;;5032665;28;20175;-71
2022/05/13 02:50:39;;;;;;;0.57;0.57;;;11.80;99.90;11.40;101710.00;;;;5047635;28;20176;-71
2022/05/13 02:53:05;;;;;;;0.40;0.40;;;11.80;99.90;11.00;101738.00;;;;5048324;28;20602;-70
2022/05/13 02:55:33;;;;;;;0.40;0.40;;;11.60;99.90;11.00;101745.00;;;;5048763;28;20178;-70
2022/05/13 02:57:59;;;;;;;0.40;0.40;;;11.50;99.90;10.80;101743.00;;;;5032494;28;20207;-70
2022/05/13 03:00:25;;;;;;;0.30;0.30;;;11.40;99.90;11.40;101736.00;;;;5030699;28;20248;-70
2022/05/13 03:02:51;;;;;;;0.30;0.30;;;11.60;99.90;11.70;101731.00;;;;5048194;28;20183;-70
2022/05/13 03:05:17;;;;;;;0.40;0.40;;;11.80;99.90;11.90;101725.00;;;;5047948;28;20202;-70
2022/05/13 03:07:43;;;;;;;0.40;0.40;;;12.00;99.90;11.50;101719.00;;;;5048581;28;20187;-70
2022/05/13 03:10:09;;;;;;;0.60;0.60;;;12.00;99.90;11.40;101733.00;;;;5047508;28;20201;-69
2022/05/13 03:12:35;;;;;;;0.30;0.30;;;11.80;99.90;11.80;101730.00;;;;5032707;28;20206;-70
2022/05/13 03:15:02;;;;;;;0.30;0.30;;;12.10;99.90;11.50;101725.00;;;;5048420;28;20221;-69
2022/05/13 03:17:31;;;;;;;0.40;0.40;;;12.00;99.90;11.50;101729.00;;;;5047205;28;20181;-69
2022/05/13 03:19:57;;;;;;;0.33;0.33;;;12.00;99.90;11.00;101736.00;;;;5051020;28;20524;-69
2022/05/13 03:22:23;;;;;;;0.80;0.80;;;11.60;99.90;10.70;101716.00;;;;5035701;28;20186;-69
2022/05/13 03:24:49;;;;;;;0.30;0.30;;;11.40;99.90;10.60;101723.00;;;;5036322;28;20180;-69
2022/05/13 03:27:18;;;;;;;0.30;0.30;;;11.30;99.90;11.00;101712.00;;;;5051687;28;20174;-69
2022/05/13 03:29:46;;;;;;;0.30;0.30;;;11.50;99.90;11.40;101709.00;;;;5051961;28;20540;-69
2022/05/13 03:32:15;;;;;;;0.60;0.60;;;11.70;99.90;11.40;101713.00;;;;5034067;28;20214;-69
2022/05/13 03:34:41;;;;;;;1.17;1.17;;;11.80;99.90;11.00;101715.00;;;;5051226;28;20603;-69
2022/05/13 03:37:07;;;;;;;0.30;0.30;;;11.70;99.90;11.70;101719.00;;;;5036233;28;20183;-69
2022/05/13 03:39:33;;;;;;;0.30;0.30;;;11.80;99.90;11.30;101700.00;;;;5036369;28;20169;-69
2022/05/13 03:41:59;;;;;;;1.57;1.47;;;11.80;99.90;11.50;101695.00;;;;5034612;28;20183;-69
2022/05/13 03:44:24;;;;;;;0.30;0.30;;;11.80;99.90;11.90;101705.00;;;;5033551;28;20179;-69
2022/05/13 03:46:50;;;;;;;0.80;0.80;;;12.00;99.90;12.20;101712.00;;;;5036034;28;20182;-69
2022/05/13 03:49:16;;;;;;;0.33;0.33;;;12.20;99.90;11.00;101684.00;;;;5051259;28;20186;-69
2022/05/13 03:51:42;;;;;;;0.30;0.30;;;11.70;99.90;11.20;101716.00;;;;5035903;28;20556;-70
2022/05/13 03:54:08;;;;;;;0.30;0.30;;;11.70;99.90;11.60;101726.00;;;;5050628;28;20181;-70
2022/05/13 03:56:34;;;;;;;0.30;0.30;;;11.70;99.90;11.40;101731.00;;;;5051301;28;20190;-70
2022/05/13 03:59:03;;;;;;;1.80;1.70;;;11.80;99.90;11.30;101714.00;;;;5017133;28;20194;-69
2022/05/13 04:01:29;;;;;;;0.40;0.40;;;11.80;99.90;11.00;101714.00;;;;5015059;28;20199;-69
2022/05/13 04:03:55;;;;;;;0.30;0.30;;;11.70;99.90;11.50;101724.00;;;;5013656;28;20619;-70
2022/05/13 04:09:06;;;;;;;0.30;0.30;;;11.80;99.90;11.90;101709.00;;;;5015521;28;20233;-69
2022/05/13 04:11:38;;;;;;;0.30;0.30;;;11.90;99.90;12.20;101718.00;;;;5014389;28;20203;-69
2022/05/13 04:16:54;;;;;;;0.30;0.30;;;11.80;99.90;10.80;101729.00;;;;5016013;28;20200;-69
2022/05/13 04:19:21;;;;;;;0.30;0.30;;;11.60;99.90;11.10;101715.00;;;;5014396;28;20658;-70
2022/05/13 04:21:48;;;;;;;0.27;0.27;;;11.60;99.90;11.50;101737.00;;;;5014054;28;20582;-70
2022/05/13 04:24:18;;;;;;;0.30;0.30;;;11.70;99.90;11.70;101724.00;;;;5015239;28;20171;-70
2022/05/13 04:26:44;;;;;;;0.30;0.30;;;11.90;99.90;11.00;101750.00;;;;4997925;28;20642;-70
2022/05/13 04:29:10;;;;;;;0.30;0.30;;;11.70;99.90;11.50;101742.00;;;;5014261;28;20175;-69
2022/05/13 04:31:40;;;;;;;8.53;1.17;;;11.70;99.90;11.80;101749.00;;;;5012344;28;20293;-70
2022/05/13 04:34:08;;;;;;;0.40;0.40;;;12.00;99.90;12.00;101754.00;;;;5013779;28;20179;-69
2022/05/13 04:36:35;;;;;;;0.33;0.33;;;12.10;99.90;11.50;101756.00;;;;5014076;28;20657;-69
2022/05/13 04:39:01;;;;;;;0.40;0.40;;;11.90;99.90;11.00;101755.00;;;;5012474;28;20257;-69
2022/05/13 04:44:14;;;;;;;9.20;1.10;;;11.50;99.90;11.00;101756.00;;;;5015268;28;20201;-70
2022/05/13 04:46:43;;;;;;;0.30;0.30;;;11.50;99.90;10.80;101758.00;;;;4997056;28;20270;-69
2022/05/13 04:49:09;;;;;;;1.33;1.23;;;11.40;99.90;11.30;101759.00;;;;4996703;28;20655;-69
2022/05/13 04:51:36;;;;;;;0.30;0.30;;;11.60;99.90;11.30;101757.00;;;;5012891;28;20292;-69
2022/05/13 04:54:03;;;;;;;0.67;0.60;;;11.70;99.90;11.50;101759.00;;;;5013795;28;20172;-69
2022/05/13 04:56:30;;;;;;;0.30;0.30;;;11.90;99.90;12.00;101757.00;;;;5014038;28;20190;-69
2022/05/13 04:58:57;;;;;;;1.43;1.33;;;12.10;99.90;11.60;101723.00;;;;5012320;28;20184;-69
2022/05/13 05:01:24;;;;;;;22.30;1.57;;;12.20;99.90;11.30;101756.00;;;;5033708;28;20183;-69
2022/05/13 05:03:51;;;;;;;0.30;0.30;;;12.00;99.90;11.40;101769.00;;;;5023111;28;20188;-68
2022/05/13 05:06:19;;;;;;;0.83;0.83;;;11.90;99.90;12.10;101767.00;;;;5014311;28;20286;-68
2022/05/13 05:08:45;;;;;;;1.43;1.33;;;12.30;99.90;12.00;101743.00;;;;5029131;28;20181;-69
2022/05/13 05:11:13;;;;;;;0.40;0.40;;;12.50;99.90;11.90;101773.00;;;;5013743;28;20234;-69
2022/05/13 05:13:44;;;;;;;0.80;0.80;;;12.30;99.90;11.40;101781.00;;;;5011827;28;20187;-69
2022/05/13 05:16:11;;;;;;;1.47;1.37;;;12.20;99.90;11.10;101788.00;;;;5027897;28;20187;-69
2022/05/13 05:18:39;;;;;;;1.10;1.07;;;11.90;99.90;11.80;101784.00;;;;5028819;28;20220;-69
2022/05/13 05:21:07;;;;;;;0.40;0.40;;;12.10;99.90;11.40;101782.00;;;;5028799;28;20699;-69
2022/05/13 05:23:35;;;;;;;0.30;0.30;;;12.10;99.90;11.50;101787.00;;;;5013301;28;20666;-69
2022/05/13 05:26:02;;;;;;;0.30;0.30;;;12.00;99.90;11.70;101792.00;;;;5029778;28;20639;-68
2022/05/13 05:28:29;;;;;;;4.93;1.97;;;12.10;99.90;11.40;101794.00;;;;5012663;28;20234;-69
2022/05/13 05:31:02;;;;;;;4.20;2.60;;;12.00;99.90;11.30;101807.00;;;;5042196;28;20271;-68
2022/05/13 05:33:28;;;;;;;1.73;1.37;;;12.00;99.90;11.20;101804.00;;;;5013957;28;20195;-69
2022/05/13 05:35:58;;;;;;;2.47;2.30;;;11.90;99.90;11.30;101812.00;;;;5012338;28;20182;-68
2022/05/13 05:38:23;;;;;;;1.00;1.00;;;11.90;99.90;11.50;101813.00;;;;5013002;28;20188;-69
2022/05/13 05:40:49;;;;;;;1.17;0.90;;;12.00;99.90;11.80;101819.00;;;;5012404;28;20231;-68
2022/05/13 05:43:17;;;;;;;3.10;2.30;;;12.20;99.90;11.30;101823.00;;;;5011559;28;20176;-68
2022/05/13 05:45:43;;;;;;;1.17;0.87;;;12.10;99.90;11.40;101830.00;;;;5012458;28;20639;-68
2022/05/13 05:48:13;;;;;;;0.77;0.77;;;12.00;99.90;11.50;101834.00;;;;5011868;28;20550;-68
2022/05/13 05:50:39;;;;;;;3.43;3.13;;;12.10;99.90;11.70;101837.00;;;;5012390;28;20591;-69
2022/05/13 05:53:05;;;;;;;0.40;0.40;;;12.30;99.90;12.00;101830.00;;;;5012023;28;20207;-69
2022/05/13 05:58:18;;;;;;;4.23;2.63;;;12.60;99.90;11.60;101827.00;;;;5012533;28;20275;-69
2022/05/13 06:00:50;;;;;;;10.90;3.93;;;12.40;99.90;11.60;101843.00;;;;5012218;28;20183;-69
2022/05/13 06:03:18;;;;;;;3.60;1.90;;;12.30;99.90;11.80;101847.00;;;;5011769;28;20287;-68
2022/05/13 06:05:56;;;;;;;4.03;3.23;;;12.30;99.90;12.00;101839.00;;;;5011977;28;20170;-69
2022/05/13 06:08:22;;;;;;;1.50;1.40;;;12.60;99.90;12.30;101843.00;;;;5012090;28;20177;-69
2022/05/13 06:10:48;;;;;;;1.03;1.03;;;12.70;99.90;12.50;101834.00;;;;5013787;28;20199;-67
2022/05/13 06:13:14;;;;;;;2.30;1.20;;;12.90;99.90;11.90;101841.00;;;;5012209;28;20206;-68
2022/05/13 06:15:40;;;;;;;4.73;1.83;;;12.60;99.90;12.00;101845.00;;;;5012465;28;20188;-68
2022/05/13 06:18:06;;;;;;;4.63;2.77;;;12.60;99.90;12.20;101869.00;;;;5011711;28;20189;-69
2022/05/13 06:20:32;;;;;;;0.37;0.37;;;12.70;99.90;12.80;101854.00;;;;5012343;28;20178;-69
2022/05/13 06:22:58;;;;;;;2.17;1.43;;;13.00;99.90;12.70;101860.00;;;;5011343;28;20194;-69
2022/05/13 06:25:25;;;;;;;2.70;2.50;;;13.30;99.90;12.60;101870.00;;;;5012221;28;20223;-69
2022/05/13 06:27:57;;;;;;;7.03;2.83;;;13.20;99.90;12.10;101852.00;;;;5011572;28;20181;-69
2022/05/13 06:30:28;;;;;;;4.87;2.93;;;12.90;99.90;12.40;101818.00;;;;5012192;28;20264;-68
2022/05/13 06:32:56;;;;;;;0.30;0.30;;;12.90;99.90;13.20;101860.00;;;;5011501;28;20221;-68
2022/05/13 06:35:25;;;;;;;0.50;0.50;;;13.30;99.90;13.50;101854.00;;;;5012309;28;20181;-68
2022/05/13 06:37:51;;;;;;;2.53;2.33;;;13.70;99.90;12.60;101864.00;;;;5010845;28;20183;-68
2022/05/13 06:40:18;;;;;;;1.93;1.83;;;13.40;99.90;12.60;101860.00;;;;5013533;28;20666;-67
2022/05/13 06:42:45;;;;;;;1.37;1.27;;;13.40;99.90;13.30;101851.00;;;;5011905;28;20566;-67
2022/05/13 06:45:15;;;;;;;2.07;1.67;;;13.60;99.90;13.00;101831.00;;;;5012030;28;20180;-68
2022/05/13 06:47:42;;;;;;;1.13;1.03;;;13.70;99.90;13.30;101824.00;;;;5012459;28;20186;-68
2022/05/13 06:50:12;;;;;;;4.80;2.10;;;13.80;99.90;13.80;101850.00;;;;5011821;28;20272;-68
2022/05/13 06:52:38;;;;;;;4.03;1.57;;;14.10;99.90;13.40;101853.00;;;;5012244;28;20211;-68
2022/05/13 06:55:05;;;;;;;4.47;2.07;;;14.10;99.90;14.30;101869.00;;;;5017327;28;20193;-68
2022/05/13 06:57:31;;;;;;;5.10;1.90;;;14.50;99.90;13.70;101836.00;;;;5023173;28;20202;-68
2022/05/13 07:00:01;;;;;;;5.77;3.00;;;14.40;99.90;14.40;101870.00;;;;5052345;28;20183;-68
2022/05/13 07:02:27;;;;;;;2.07;1.77;;;14.80;99.90;14.40;101858.00;;;;5051843;28;20190;-68
2022/05/13 07:04:53;;;;;;;4.00;2.63;;;14.80;99.90;15.30;101854.00;;;;5045054;28;20268;-68
2022/05/13 07:07:21;;;;;;;1.30;1.13;;;15.60;99.90;14.60;101846.00;;;;5030128;28;20640;-67
2022/05/13 07:09:49;;;;;;;5.07;2.03;;;15.40;99.90;14.80;101846.00;;;;5035838;28;20195;-68
2022/05/13 07:12:16;;;;;;;9.73;2.30;;;15.30;99.90;15.90;101849.00;;;;5031996;28;20209;-68
2022/05/13 07:14:44;;;;;;;2.97;1.60;;;16.10;99.90;14.50;101848.00;;;;5029113;28;20231;-68
2022/05/13 07:17:12;;;;;;;4.90;1.43;;;15.40;99.90;15.00;101840.00;;;;5035379;28;20257;-68
2022/05/13 07:19:38;;;;;;;4.10;2.07;;;15.60;99.90;13.90;101863.00;;;;5051768;28;20224;-65
2022/05/13 07:22:07;;;;;;;2.70;1.70;;;15.00;99.90;15.10;101865.00;;;;5036175;28;20187;-67
2022/05/13 07:24:33;;;;;;;7.80;1.40;;;15.30;99.90;15.30;101864.00;;;;5052235;28;20182;-70
2022/05/13 07:26:58;;;;;;;2.90;1.90;;;15.80;99.90;14.90;101863.00;;;;5036278;28;20319;-71
2022/05/13 07:29:24;;;;;;;2.33;1.80;;;15.70;99.90;15.60;101870.00;;;;5049334;28;20175;-74
2022/05/13 07:31:52;;;;;;;3.80;1.80;;;16.10;99.90;14.50;101853.00;;;;5029604;28;20247;-68
2022/05/13 07:34:22;;;;;;;6.90;1.60;;;15.60;99.90;15.80;101862.00;;;;5043969;28;20317;-76
2022/05/13 07:36:53;;;;;;;1.13;1.03;;;16.00;99.90;15.40;101859.00;;;;5023327;28;20181;-76
2022/05/13 07:42:12;;;;;;;10.37;2.63;;;16.20;99.90;15.30;101856.00;;;;5032269;28;20214;-75
2022/05/13 07:44:38;;;;;;;1.30;0.60;;;15.90;99.90;14.60;101854.00;;;;5047736;28;20737;-76
2022/05/13 07:47:07;;;;;;;3.77;1.87;;;15.60;99.90;15.90;101856.00;;;;5048743;28;20191;-75
2022/05/13 07:49:34;;;;;;;0.70;0.70;;;16.20;99.90;17.20;101883.00;;;;5049882;28;20717;-76
2022/05/13 07:52:01;;;;;;;3.40;0.90;;;17.50;99.90;17.00;101884.00;;;;5048426;28;20209;-68
2022/05/13 07:54:30;;;;;;;0.90;0.90;;;17.80;99.90;16.50;101891.00;;;;5033965;28;20181;-69
2022/05/13 07:56:56;;;;;;;5.57;2.25;;;17.60;99.90;17.60;101885.00;;;;5032773;28;20167;-69
2022/05/13 07:59:22;;;;;;;2.13;0.80;;;17.80;99.90;17.70;101888.00;;;;5049701;28;20209;-69
2022/05/13 08:01:47;;;;;;;2.05;1.20;;;18.50;99.90;16.10;101888.00;;;;5022799;28;20218;-70
2022/05/13 08:04:13;;;;;;;0.60;0.57;;;17.20;99.90;16.70;101856.00;;;;5012887;28;20165;-69
2022/05/13 08:06:40;;;;;;;3.90;1.70;;;17.20;99.90;16.20;101894.00;;;;5013272;28;20228;-79
2022/05/13 08:09:09;;;;;;;10.90;3.30;;;16.90;99.90;15.70;101851.00;;;;5012002;28;20186;-78
2022/05/13 08:11:35;;;;;;;2.10;1.17;;;16.50;99.90;15.90;101886.00;;;;5034242;28;20218;-68
2022/05/13 08:14:04;;;;;;;0.77;0.57;;;16.50;99.90;15.50;101891.00;;;;5034106;28;20164;-73
2022/05/13 08:16:32;;;;;;;0.50;0.50;;;16.30;99.90;17.50;101905.00;;;;5032991;28;20631;-78
2022/05/13 08:19:02;;;;;;;1.17;0.38;;;17.20;99.90;17.80;101941.00;;;;5049977;28;20173;-72
2022/05/13 08:21:28;;;;;;;0.93;0.93;;;18.00;99.90;18.40;101958.00;;;;5034842;28;20174;-71
2022/05/13 08:23:54;;;;;;;2.25;1.27;;;18.60;99.90;19.20;101968.00;;;;5031150;28;20181;-69
2022/05/13 08:26:20;;;;;;;0.57;0.57;;;19.00;99.90;18.10;101960.00;;;;5030233;28;20633;-71
2022/05/13 08:28:46;;;;;;;0.40;0.40;;;18.70;99.90;16.60;101905.00;;;;5033557;28;20175;-68
2022/05/13 08:31:14;;;;;;;1.27;1.02;;;17.70;99.90;17.20;101960.00;;;;5048793;28;20284;-68
2022/05/13 08:33:41;;;;;;;10.30;1.03;;;17.70;99.90;17.10;101910.00;;;;5050284;28;20176;-70
2022/05/13 08:36:07;;;;;;;1.17;0.60;;;17.40;99.90;18.30;101981.00;;;;5034293;28;20183;-68
2022/05/13 08:38:37;;;;;;;2.28;1.48;;;18.40;99.90;18.10;101970.00;;;;5048730;28;20178;-69
2022/05/13 08:41:08;;;;;;;1.40;1.30;;;18.50;99.90;17.10;101977.00;;;;5031386;28;20183;-67
2022/05/13 08:44:04;;;;;;;0.23;0.23;;;17.60;99.90;17.30;101966.00;;;;5033878;28;20226;-67
2022/05/13 08:46:40;;;;;;;3.30;1.03;;;17.10;99.90;17.40;101969.00;;;;5030323;28;20210;-76
2022/05/13 08:49:40;;;;;;;0.67;0.60;;;17.70;99.90;17.60;101992.00;;;;5049234;28;20677;-71
2022/05/13 08:56:01;;;;;;;1.87;1.17;;;17.70;99.90;17.50;101995.00;;;;5032850;28;20198;-68
2022/05/13 08:59:12;;;;;;;2.57;1.53;;;17.60;99.90;18.70;102007.00;;;;5029109;28;20196;-76
2022/05/13 09:01:47;;;;;;;0.10;0.10;;;18.10;99.90;19.60;102024.00;;;;5022752;28;20208;-67
2022/05/13 09:04:37;;;;;;;0.10;0.10;;;19.00;99.90;19.90;102061.00;;;;5032908;28;20233;-67
2022/05/13 09:07:10;;;;;;;2.35;2.25;;;19.50;99.90;19.60;102059.00;;;;5031954;28;20281;-68
2022/05/13 09:09:37;;;;;;;0.50;0.50;;;19.50;99.90;17.80;102026.00;;;;5049220;28;20176;-67
2022/05/13 09:12:41;;;;;;;4.73;2.17;;;18.30;99.90;17.80;102041.00;;;;5048745;28;20731;-65
2022/05/13 09:15:23;;;;;;;2.80;1.57;;;18.20;99.90;17.60;102041.00;;;;5033282;28;20179;-70
2022/05/13 09:18:08;;;;;;;1.10;1.10;;;17.70;99.90;17.50;102028.00;;;;5031947;28;20810;-73
2022/05/13 09:21:02;;;;;;;5.70;1.20;;;17.60;99.90;18.50;102056.00;;;;5032043;28;20198;-78
2022/05/13 09:23:29;;;;;;;1.03;1.03;;;18.50;99.90;18.80;102043.00;;;;5048033;28;20184;-70
2022/05/13 09:26:06;;;;;;;1.63;1.53;;;18.60;99.90;17.80;102010.00;;;;5049451;28;20636;-77
2022/05/13 09:28:36;;;;;;;1.17;0.90;;;18.10;99.90;16.40;102025.00;;;;5031901;28;20277;-70
2022/05/13 09:31:29;;;;;;;5.23;1.70;;;17.30;99.90;17.20;102001.00;;;;5030620;28;20187;-70
2022/05/13 09:33:55;;;;;;;1.33;1.23;;;17.20;99.90;17.60;101986.00;;;;5030429;28;20205;-70
2022/05/13 09:36:24;;;;;;;1.03;1.03;;;17.60;99.90;17.40;102027.00;;;;5030669;28;20190;-80
2022/05/13 09:39:00;;;;;;;0.57;0.57;;;17.60;99.90;18.00;102040.00;;;;5048587;28;20193;-73
2022/05/13 09:41:36;;;;;;;3.13;1.67;;;17.80;99.90;17.60;102039.00;;;;5031969;28;20194;-70
2022/05/13 09:44:07;;;;;;;2.50;0.77;;;18.00;99.90;17.00;102023.00;;;;5030413;28;20183;-68
2022/05/13 09:47:02;;;;;;;0.77;0.77;;;17.40;99.90;18.70;102047.00;;;;5044473;28;20185;-70
2022/05/13 09:49:40;;;;;;;2.13;1.95;;;18.20;99.90;18.20;102038.00;;;;5030885;28;20243;-70
2022/05/13 09:52:17;;;;;;;0.20;0.20;;;18.60;99.90;17.70;102047.00;;;;5047648;28;20207;-69
2022/05/13 09:54:56;;;;;;;6.82;2.25;;;18.00;99.90;18.00;102019.00;;;;5048391;28;20604;-72
2022/05/13 09:57:38;;;;;;;1.03;1.03;;;17.90;99.90;17.30;102040.00;;;;5031645;28;20210;-68
2022/05/13 10:00:19;;;;;;;1.10;1.00;;;17.50;99.90;17.60;102053.00;;;;5032536;28;20166;-70
2022/05/13 10:02:49;;;;;;;4.30;2.00;;;17.70;99.90;18.10;102067.00;;;;5047559;28;20224;-69
2022/05/13 10:05:31;;;;;;;0.43;0.43;;;18.10;99.90;18.10;102068.00;;;;5047554;28;20204;-70
2022/05/13 10:08:15;;;;;;;0.77;0.77;;;18.20;99.90;18.20;102034.00;;;;5047904;28;20171;-69
2022/05/13 10:13:59;;;;;;;3.67;1.93;;;18.30;99.90;16.80;102060.00;;;;5028893;28;20197;-69
2022/05/13 10:16:34;;;;;;;1.37;1.23;;;17.50;99.90;16.60;102038.00;;;;5047475;28;20200;-81
2022/05/13 10:19:06;;;;;;;1.20;1.10;;;17.00;99.90;16.90;102039.00;;;;5046611;28;20226;-80
2022/05/13 10:33:53;;;;;;;1.50;1.23;;;17.60;99.90;17.90;102061.00;;;;5107565;27;1282762;-79
2022/05/13 10:36:26;;;;;;;8.33;3.03;;;17.80;99.90;17.70;102058.00;;;;5076705;28;20255;-81
2022/05/13 10:39:31;;;;;;;1.07;0.97;;;17.90;99.90;17.30;102024.00;;;;5112576;28;20201;-80
2022/05/13 10:42:10;;;;;;;1.87;1.77;;;17.60;99.90;18.00;102048.00;;;;5130240;28;20183;-80
2022/05/13 10:45:05;;;;;;;0.77;0.77;;;17.80;99.90;19.20;102060.00;;;;5126392;28;20171;-80
2022/05/13 10:47:41;;;;;;;2.03;1.93;;;18.60;99.90;17.90;102059.00;;;;5089759;28;20274;-80
2022/05/13 10:50:35;;;;;;;0.90;0.83;;;18.00;99.90;18.30;102078.00;;;;5090745;28;20186;-81
2022/05/13 10:53:47;;;;;;;4.53;1.70;;;18.20;99.90;18.00;102037.00;;;;5102229;28;20307;-81
2022/05/13 10:56:51;;;;;;;1.73;1.73;;;18.10;99.90;18.00;102066.00;;;;5109758;28;20188;-78
2022/05/13 11:00:05;;;;;;;1.70;1.60;;;18.00;99.90;17.40;102080.00;;;;5120163;28;20182;-77
2022/05/13 11:02:55;;;;;;;1.20;1.10;;;17.80;99.90;17.80;102082.00;;;;5028193;28;20212;-77
2022/05/13 11:06:11;;;;;;;2.87;1.43;;;17.80;99.90;17.90;102087.00;;;;5028594;28;20322;-77
2022/05/13 11:09:04;;;;;;;6.80;1.80;;;18.40;99.90;17.50;102074.00;;;;5039114;28;20196;-77
2022/05/13 11:11:43;;;;;;;1.23;0.80;;;17.90;99.90;17.60;102064.00;;;;5090593;28;20206;-77
2022/05/13 11:14:38;;;;;;;0.10;0.10;;;17.70;99.90;18.90;102043.00;;;;5089724;28;20582;-77
2022/05/13 11:17:28;;;;;;;0.20;0.20;;;18.30;99.90;19.50;102093.00;;;;5109584;28;20167;-77
2022/05/13 11:20:46;;;;;;;0.20;0.20;;;18.90;99.90;20.10;102087.00;;;;5107074;28;20555;-78
2022/05/13 11:27:54;;;;;;;2.13;0.80;;;18.70;99.90;17.30;102035.00;;;;5065644;28;20198;-77
2022/05/13 11:30:38;;;;;;;0.37;0.37;;;17.80;99.90;17.40;102066.00;;;;5108470;28;20671;-77
2022/05/13 11:34:08;;;;;;;0.20;0.20;;;17.60;99.90;18.50;102080.00;;;;5106725;28;20212;-77
2022/05/13 11:36:41;;;;;;;3.63;1.23;;;18.00;99.90;19.30;102096.00;;;;5106536;28;20549;-77
2022/05/13 11:39:29;;;;;;;2.47;0.80;;;19.00;99.90;17.60;102084.00;;;;5107137;28;20192;-77
2022/05/13 11:42:00;;;;;;;0.70;0.47;;;18.30;99.90;18.10;102080.00;;;;5107693;28;20655;-77
2022/05/13 11:45:12;;;;;;;2.83;0.97;;;18.10;99.90;19.50;102079.00;;;;5097153;28;20196;-77
2022/05/13 11:47:59;;;;;;;0.77;0.73;;;19.00;99.90;18.60;102102.00;;;;5065662;28;20288;-77